sensor_id;sensor_type;location;lat;lon;timestamp;P1;durP1;ratioP1;P2;durP2;ratioP2
21517;SDS011;61765;45.794;24.150;2023-03-15T00:02:11;4.53;;;2.05;;
21517;SDS011;61765;45.794;24.150;2023-03-15T00:10:17;2.28;;;1.65;;
21517;SDS011;61765;45.794;24.150;2023-03-15T00:18:25;4.32;;;2.05;;
21517;SDS011;61765;45.794;24.150;2023-03-15T00:26:31;4.07;;;2.63;;
21517;SDS011;61765;45.794;24.150;2023-03-15T00:34:39;2.42;;;1.80;;
21517;SDS011;61765;45.794;24.150;2023-03-15T00:42:50;2.72;;;1.80;;
21517;SDS011;61765;45.794;24.150;2023-03-15T00:51:05;2.63;;;1.60;;
21517;SDS011;61765;45.794;24.150;2023-03-15T00:59:11;5.47;;;2.00;;
21517;SDS011;61765;45.794;24.150;2023-03-15T01:07:19;3.97;;;1.60;;
21517;SDS011;61765;45.794;24.150;2023-03-15T01:15:25;3.40;;;1.50;;
21517;SDS011;61765;45.794;24.150;2023-03-15T01:23:35;2.75;;;1.85;;
21517;SDS011;61765;45.794;24.150;2023-03-15T01:31:40;2.42;;;1.80;;
21517;SDS011;61765;45.794;24.150;2023-03-15T01:39:50;2.63;;;1.70;;
21517;SDS011;61765;45.794;24.150;2023-03-15T01:47:55;4.25;;;1.90;;
21517;SDS011;61765;45.794;24.150;2023-03-15T01:56:04;3.97;;;1.83;;
21517;SDS011;61765;45.794;24.150;2023-03-15T02:04:12;3.40;;;1.77;;
21517;SDS011;61765;45.794;24.150;2023-03-15T02:12:24;6.47;;;3.30;;
21517;SDS011;61765;45.794;24.150;2023-03-15T02:20:31;7.97;;;4.35;;
21517;SDS011;61765;45.794;24.150;2023-03-15T02:28:46;13.17;;;8.10;;
21517;SDS011;61765;45.794;24.150;2023-03-15T02:36:53;13.45;;;8.00;;
21517;SDS011;61765;45.794;24.150;2023-03-15T02:45:03;11.73;;;6.78;;
21517;SDS011;61765;45.794;24.150;2023-03-15T02:53:10;11.93;;;6.10;;
21517;SDS011;61765;45.794;24.150;2023-03-15T03:01:18;9.55;;;5.82;;
21517;SDS011;61765;45.794;24.150;2023-03-15T03:09:24;13.15;;;6.60;;
21517;SDS011;61765;45.794;24.150;2023-03-15T03:17:33;11.13;;;6.43;;
21517;SDS011;61765;45.794;24.150;2023-03-15T03:25:39;9.93;;;6.05;;
21517;SDS011;61765;45.794;24.150;2023-03-15T03:33:49;10.40;;;6.10;;
21517;SDS011;61765;45.794;24.150;2023-03-15T03:41:55;9.70;;;5.45;;
21517;SDS011;61765;45.794;24.150;2023-03-15T03:50:03;8.82;;;4.97;;
21517;SDS011;61765;45.794;24.150;2023-03-15T03:58:10;9.32;;;4.85;;
21517;SDS011;61765;45.794;24.150;2023-03-15T04:06:26;7.25;;;3.58;;
21517;SDS011;61765;45.794;24.150;2023-03-15T04:14:32;4.47;;;2.75;;
21517;SDS011;61765;45.794;24.150;2023-03-15T04:22:44;8.07;;;2.97;;
21517;SDS011;61765;45.794;24.150;2023-03-15T04:31:04;7.30;;;4.40;;
21517;SDS011;61765;45.794;24.150;2023-03-15T04:39:32;9.35;;;4.53;;
21517;SDS011;61765;45.794;24.150;2023-03-15T04:47:58;10.82;;;4.65;;
21517;SDS011;61765;45.794;24.150;2023-03-15T05:04:51;8.30;;;4.57;;
21517;SDS011;61765;45.794;24.150;2023-03-15T05:13:18;8.07;;;5.07;;
21517;SDS011;61765;45.794;24.150;2023-03-15T05:21:41;11.75;;;5.43;;
21517;SDS011;61765;45.794;24.150;2023-03-15T05:30:02;11.52;;;6.13;;
21517;SDS011;61765;45.794;24.150;2023-03-15T05:38:27;12.90;;;5.95;;
21517;SDS011;61765;45.794;24.150;2023-03-15T05:46:56;9.25;;;4.82;;
21517;SDS011;61765;45.794;24.150;2023-03-15T05:55:21;10.93;;;5.25;;
21517;SDS011;61765;45.794;24.150;2023-03-15T06:03:53;15.57;;;6.05;;
21517;SDS011;61765;45.794;24.150;2023-03-15T06:12:03;15.07;;;7.85;;
21517;SDS011;61765;45.794;24.150;2023-03-15T06:20:14;12.02;;;6.35;;
21517;SDS011;61765;45.794;24.150;2023-03-15T06:28:20;9.30;;;5.50;;
21517;SDS011;61765;45.794;24.150;2023-03-15T06:36:32;12.38;;;6.00;;
21517;SDS011;61765;45.794;24.150;2023-03-15T06:44:38;10.93;;;5.60;;
21517;SDS011;61765;45.794;24.150;2023-03-15T06:52:49;15.30;;;6.28;;
21517;SDS011;61765;45.794;24.150;2023-03-15T07:00:54;10.27;;;5.47;;
21517;SDS011;61765;45.794;24.150;2023-03-15T07:09:03;10.25;;;5.75;;
21517;SDS011;61765;45.794;24.150;2023-03-15T07:17:09;8.23;;;4.93;;
21517;SDS011;61765;45.794;24.150;2023-03-15T07:25:17;14.80;;;6.57;;
21517;SDS011;61765;45.794;24.150;2023-03-15T07:33:27;10.88;;;6.05;;
21517;SDS011;61765;45.794;24.150;2023-03-15T07:41:36;13.00;;;6.30;;
21517;SDS011;61765;45.794;24.150;2023-03-15T07:49:53;16.00;;;5.22;;
21517;SDS011;61765;45.794;24.150;2023-03-15T07:58:02;11.88;;;6.15;;
21517;SDS011;61765;45.794;24.150;2023-03-15T08:06:08;13.43;;;6.40;;
21517;SDS011;61765;45.794;24.150;2023-03-15T08:14:16;8.30;;;5.45;;
21517;SDS011;61765;45.794;24.150;2023-03-15T08:22:22;12.63;;;6.13;;
21517;SDS011;61765;45.794;24.150;2023-03-15T08:30:30;9.82;;;5.95;;
21517;SDS011;61765;45.794;24.150;2023-03-15T08:38:36;8.73;;;5.82;;
21517;SDS011;61765;45.794;24.150;2023-03-15T08:46:45;11.38;;;6.30;;
21517;SDS011;61765;45.794;24.150;2023-03-15T08:54:51;9.35;;;4.80;;
21517;SDS011;61765;45.794;24.150;2023-03-15T09:02:59;10.93;;;5.60;;
21517;SDS011;61765;45.794;24.150;2023-03-15T09:11:05;10.50;;;5.63;;
21517;SDS011;61765;45.794;24.150;2023-03-15T09:19:14;8.50;;;5.45;;
21517;SDS011;61765;45.794;24.150;2023-03-15T09:27:20;9.52;;;4.85;;
21517;SDS011;61765;45.794;24.150;2023-03-15T09:35:30;11.95;;;5.65;;
21517;SDS011;61765;45.794;24.150;2023-03-15T09:43:47;13.93;;;8.15;;
21517;SDS011;61765;45.794;24.150;2023-03-15T09:52:08;12.85;;;7.80;;
21517;SDS011;61765;45.794;24.150;2023-03-15T10:00:29;22.27;;;7.75;;
21517;SDS011;61765;45.794;24.150;2023-03-15T10:08:42;25.65;;;7.15;;
21517;SDS011;61765;45.794;24.150;2023-03-15T10:16:50;14.00;;;8.30;;
21517;SDS011;61765;45.794;24.150;2023-03-15T10:24:59;10.77;;;5.82;;
21517;SDS011;61765;45.794;24.150;2023-03-15T10:33:12;11.70;;;7.18;;
21517;SDS011;61765;45.794;24.150;2023-03-15T10:41:35;10.48;;;5.85;;
21517;SDS011;61765;45.794;24.150;2023-03-15T10:49:42;12.32;;;6.22;;
21517;SDS011;61765;45.794;24.150;2023-03-15T10:57:54;11.13;;;6.20;;
21517;SDS011;61765;45.794;24.150;2023-03-15T11:06:00;8.75;;;5.90;;
21517;SDS011;61765;45.794;24.150;2023-03-15T11:14:24;13.32;;;6.32;;
21517;SDS011;61765;45.794;24.150;2023-03-15T11:22:31;14.45;;;7.32;;
21517;SDS011;61765;45.794;24.150;2023-03-15T11:30:40;12.73;;;7.25;;
21517;SDS011;61765;45.794;24.150;2023-03-15T11:38:49;15.52;;;6.35;;
21517;SDS011;61765;45.794;24.150;2023-03-15T11:47:00;10.38;;;6.40;;
21517;SDS011;61765;45.794;24.150;2023-03-15T11:55:15;11.05;;;6.50;;
21517;SDS011;61765;45.794;24.150;2023-03-15T12:03:28;14.52;;;7.28;;
21517;SDS011;61765;45.794;24.150;2023-03-15T12:11:40;12.32;;;6.78;;
21517;SDS011;61765;45.794;24.150;2023-03-15T12:19:59;15.27;;;5.38;;
21517;SDS011;61765;45.794;24.150;2023-03-15T12:28:18;10.52;;;5.93;;
21517;SDS011;61765;45.794;24.150;2023-03-15T12:36:31;11.93;;;6.85;;
21517;SDS011;61765;45.794;24.150;2023-03-15T12:44:40;8.05;;;6.05;;
21517;SDS011;61765;45.794;24.150;2023-03-15T12:52:49;8.35;;;5.25;;
21517;SDS011;61765;45.794;24.150;2023-03-15T13:00:54;7.53;;;5.13;;
21517;SDS011;61765;45.794;24.150;2023-03-15T13:09:05;7.65;;;4.88;;
21517;SDS011;61765;45.794;24.150;2023-03-15T13:17:24;9.60;;;5.07;;
21517;SDS011;61765;45.794;24.150;2023-03-15T13:25:40;14.52;;;5.93;;
21517;SDS011;61765;45.794;24.150;2023-03-15T13:33:53;8.48;;;5.43;;
21517;SDS011;61765;45.794;24.150;2023-03-15T13:42:04;10.10;;;5.57;;
21517;SDS011;61765;45.794;24.150;2023-03-15T13:50:36;8.07;;;5.38;;
21517;SDS011;61765;45.794;24.150;2023-03-15T13:58:45;10.70;;;6.95;;
21517;SDS011;61765;45.794;24.150;2023-03-15T14:07:01;7.25;;;4.93;;
21517;SDS011;61765;45.794;24.150;2023-03-15T14:15:34;14.57;;;5.93;;
21517;SDS011;61765;45.794;24.150;2023-03-15T14:23:45;7.90;;;4.75;;
21517;SDS011;61765;45.794;24.150;2023-03-15T14:31:58;9.48;;;5.60;;
21517;SDS011;61765;45.794;24.150;2023-03-15T14:56:30;14.15;;;5.28;;
21517;SDS011;61765;45.794;24.150;2023-03-15T15:04:40;13.82;;;5.70;;
21517;SDS011;61765;45.794;24.150;2023-03-15T15:12:48;8.48;;;5.05;;
21517;SDS011;61765;45.794;24.150;2023-03-15T15:21:13;7.65;;;5.03;;
21517;SDS011;61765;45.794;24.150;2023-03-15T15:29:23;12.35;;;6.53;;
21517;SDS011;61765;45.794;24.150;2023-03-15T15:37:32;15.52;;;7.40;;
21517;SDS011;61765;45.794;24.150;2023-03-15T15:45:37;13.55;;;8.02;;
21517;SDS011;61765;45.794;24.150;2023-03-15T15:53:46;14.88;;;9.02;;
21517;SDS011;61765;45.794;24.150;2023-03-15T16:01:52;13.43;;;8.18;;
21517;SDS011;61765;45.794;24.150;2023-03-15T16:18:16;14.60;;;8.50;;
21517;SDS011;61765;45.794;24.150;2023-03-15T16:26:22;22.35;;;9.90;;
21517;SDS011;61765;45.794;24.150;2023-03-15T16:34:32;17.17;;;9.95;;
21517;SDS011;61765;45.794;24.150;2023-03-15T16:42:38;16.67;;;10.13;;
21517;SDS011;61765;45.794;24.150;2023-03-15T16:50:46;20.90;;;11.32;;
21517;SDS011;61765;45.794;24.150;2023-03-15T16:58:52;29.02;;;12.88;;
21517;SDS011;61765;45.794;24.150;2023-03-15T17:07:01;23.17;;;12.25;;
21517;SDS011;61765;45.794;24.150;2023-03-15T17:15:08;23.80;;;14.18;;
21517;SDS011;61765;45.794;24.150;2023-03-15T17:23:17;25.35;;;13.57;;
21517;SDS011;61765;45.794;24.150;2023-03-15T17:31:26;30.55;;;13.77;;
21517;SDS011;61765;45.794;24.150;2023-03-15T17:39:36;23.00;;;11.63;;
21517;SDS011;61765;45.794;24.150;2023-03-15T17:47:41;21.02;;;11.35;;
21517;SDS011;61765;45.794;24.150;2023-03-15T17:55:49;24.92;;;13.73;;
21517;SDS011;61765;45.794;24.150;2023-03-15T18:03:59;21.58;;;12.23;;
21517;SDS011;61765;45.794;24.150;2023-03-15T18:12:11;21.35;;;12.85;;
21517;SDS011;61765;45.794;24.150;2023-03-15T18:20:17;22.58;;;12.30;;
21517;SDS011;61765;45.794;24.150;2023-03-15T18:28:30;24.25;;;12.48;;
21517;SDS011;61765;45.794;24.150;2023-03-15T18:36:36;25.90;;;12.50;;
21517;SDS011;61765;45.794;24.150;2023-03-15T18:44:44;25.52;;;12.63;;
21517;SDS011;61765;45.794;24.150;2023-03-15T18:52:50;25.77;;;13.52;;
21517;SDS011;61765;45.794;24.150;2023-03-15T19:00:59;24.60;;;13.63;;
21517;SDS011;61765;45.794;24.150;2023-03-15T19:09:04;27.05;;;15.05;;
21517;SDS011;61765;45.794;24.150;2023-03-15T19:17:16;24.83;;;13.82;;
21517;SDS011;61765;45.794;24.150;2023-03-15T19:25:21;23.58;;;13.75;;
21517;SDS011;61765;45.794;24.150;2023-03-15T19:33:30;24.27;;;14.07;;
21517;SDS011;61765;45.794;24.150;2023-03-15T19:41:36;20.40;;;12.68;;
21517;SDS011;61765;45.794;24.150;2023-03-15T19:49:44;24.40;;;14.93;;
21517;SDS011;61765;45.794;24.150;2023-03-15T19:57:50;23.67;;;14.10;;
21517;SDS011;61765;45.794;24.150;2023-03-15T20:06:01;27.00;;;14.50;;
21517;SDS011;61765;45.794;24.150;2023-03-15T20:14:08;28.33;;;15.35;;
21517;SDS011;61765;45.794;24.150;2023-03-15T20:22:16;23.23;;;14.55;;
21517;SDS011;61765;45.794;24.150;2023-03-15T20:30:22;22.63;;;14.60;;
21517;SDS011;61765;45.794;24.150;2023-03-15T20:38:30;23.35;;;14.45;;
21517;SDS011;61765;45.794;24.150;2023-03-15T20:46:37;25.17;;;14.13;;
21517;SDS011;61765;45.794;24.150;2023-03-15T20:54:47;24.95;;;14.50;;
21517;SDS011;61765;45.794;24.150;2023-03-15T21:02:52;20.77;;;12.60;;
21517;SDS011;61765;45.794;24.150;2023-03-15T21:11:03;18.08;;;11.93;;
21517;SDS011;61765;45.794;24.150;2023-03-15T21:19:10;21.58;;;12.18;;
21517;SDS011;61765;45.794;24.150;2023-03-15T21:27:18;20.98;;;13.43;;
21517;SDS011;61765;45.794;24.150;2023-03-15T21:35:27;21.48;;;12.85;;
21517;SDS011;61765;45.794;24.150;2023-03-15T21:43:37;18.20;;;11.98;;
21517;SDS011;61765;45.794;24.150;2023-03-15T21:51:43;19.83;;;13.27;;
21517;SDS011;61765;45.794;24.150;2023-03-15T21:59:52;19.20;;;11.70;;
21517;SDS011;61765;45.794;24.150;2023-03-15T22:07:57;18.08;;;11.85;;
21517;SDS011;61765;45.794;24.150;2023-03-15T22:16:06;23.10;;;12.77;;
21517;SDS011;61765;45.794;24.150;2023-03-15T22:24:12;18.10;;;11.02;;
21517;SDS011;61765;45.794;24.150;2023-03-15T22:32:21;19.23;;;13.02;;
21517;SDS011;61765;45.794;24.150;2023-03-15T22:40:27;16.13;;;10.52;;
21517;SDS011;61765;45.794;24.150;2023-03-15T22:48:35;16.10;;;9.85;;
21517;SDS011;61765;45.794;24.150;2023-03-15T22:56:41;13.88;;;10.18;;
21517;SDS011;61765;45.794;24.150;2023-03-15T23:04:50;14.02;;;9.00;;
21517;SDS011;61765;45.794;24.150;2023-03-15T23:12:55;13.82;;;9.48;;
21517;SDS011;61765;45.794;24.150;2023-03-15T23:21:07;15.15;;;8.80;;
21517;SDS011;61765;45.794;24.150;2023-03-15T23:29:14;15.10;;;9.63;;
21517;SDS011;61765;45.794;24.150;2023-03-15T23:37:22;13.13;;;8.50;;
21517;SDS011;61765;45.794;24.150;2023-03-15T23:45:29;12.40;;;8.35;;
21517;SDS011;61765;45.794;24.150;2023-03-15T23:53:37;15.63;;;9.35;;
